4XHLI LLMZ-LLRS
Flight info
| Callsign | 4XHLI |
|---|---|
| Flight time | N/A |
| Altitude | 1200 |
| Route | LSA CVFR |
| Aircraft | FDCT/L-VGD/A |
Departure
| Time | 2026-04-24 07:30 |
|---|---|
| Airport | Bar Yehuda Airfield (LLMZ) |
Arrival
| Time | N/A |
|---|---|
| Airport | Rishon Lezion Airfield (LLRS) |
| Time | Latitude | Longitude | Altitude | Speed | Heading |
|---|---|---|---|---|---|
| 2026-04-24 07:15 | 31.32986 | 35.38792 | -1239 ft | 0 kts | 93° |
| 2026-04-24 07:28 | 31.32956 | 35.38838 | -1245 ft | 10 kts | 138° |
| 2026-04-24 07:29 | 31.32958 | 35.38880 | -1247 ft | 7 kts | 15° |
| 2026-04-24 07:29 | 31.33044 | 35.38900 | -1237 ft | 40 kts | 7° |
| 2026-04-24 07:29 | 31.33397 | 35.38949 | -1100 ft | 49 kts | 3° |
| 2026-04-24 07:29 | 31.33822 | 35.39038 | -1090 ft | 74 kts | 14° |
| 2026-04-24 07:30 | 31.34336 | 35.39215 | -930 ft | 78 kts | 16° |
| 2026-04-24 07:30 | 31.34889 | 35.39399 | -872 ft | 86 kts | 9° |
| 2026-04-24 07:30 | 31.35460 | 35.39524 | -713 ft | 84 kts | 4° |
| 2026-04-24 07:30 | 31.36026 | 35.39604 | -576 ft | 78 kts | 7° |
| 2026-04-24 07:31 | 31.36578 | 35.39696 | -461 ft | 81 kts | 6° |
| 2026-04-24 07:31 | 31.37144 | 35.39772 | -366 ft | 82 kts | 6° |
| 2026-04-24 07:31 | 31.37714 | 35.39839 | -267 ft | 84 kts | 5° |
| 2026-04-24 07:31 | 31.38309 | 35.39989 | -298 ft | 89 kts | 17° |
| 2026-04-24 07:32 | 31.38886 | 35.40235 | -301 ft | 91 kts | 21° |
| 2026-04-24 07:32 | 31.39459 | 35.40559 | -337 ft | 92 kts | 24° |
| 2026-04-24 07:32 | 31.40033 | 35.40897 | -388 ft | 89 kts | 27° |
| 2026-04-24 07:32 | 31.40618 | 35.40988 | -877 ft | 107 kts | 358° |
| 2026-04-24 07:33 | 31.41251 | 35.41065 | -1293 ft | 93 kts | 358° |
| 2026-04-24 07:33 | 31.41886 | 35.41055 | -1301 ft | 91 kts | 358° |
| 2026-04-24 07:33 | 31.42526 | 35.41024 | -1341 ft | 93 kts | 360° |
| 2026-04-24 07:33 | 31.43137 | 35.41076 | -1262 ft | 89 kts | 3° |
| 2026-04-24 07:34 | 31.43756 | 35.41063 | -1229 ft | 83 kts | 342° |
| 2026-04-24 07:34 | 31.43882 | 35.40586 | -919 ft | 74 kts | 230° |
| 2026-04-24 07:34 | 31.43417 | 35.40463 | -649 ft | 67 kts | 171° |
| 2026-04-24 07:34 | 31.42973 | 35.40604 | -354 ft | 68 kts | 157° |
| 2026-04-24 07:35 | 31.42559 | 35.40745 | -17 ft | 61 kts | 172° |
| 2026-04-24 07:35 | 31.42122 | 35.40729 | 246 ft | 67 kts | 182° |
| 2026-04-24 07:35 | 31.41674 | 35.40698 | 466 ft | 77 kts | 194° |
| 2026-04-24 07:35 | 31.41061 | 35.40513 | 255 ft | 106 kts | 195° |
| 2026-04-24 07:36 | 31.40291 | 35.40258 | -456 ft | 115 kts | 198° |
| 2026-04-24 07:36 | 31.39581 | 35.39978 | -632 ft | 104 kts | 197° |
| 2026-04-24 07:36 | 31.38888 | 35.39837 | -712 ft | 100 kts | 188° |
| 2026-04-24 07:36 | 31.38211 | 35.39782 | -699 ft | 94 kts | 181° |
| 2026-04-24 07:37 | 31.37567 | 35.39766 | -642 ft | 93 kts | 184° |
| 2026-04-24 07:37 | 31.36913 | 35.39685 | -666 ft | 97 kts | 188° |
| 2026-04-24 07:37 | 31.36236 | 35.39602 | -716 ft | 97 kts | 189° |
| 2026-04-24 07:37 | 31.35571 | 35.39458 | -772 ft | 97 kts | 190° |
| 2026-04-24 07:38 | 31.34944 | 35.39325 | -898 ft | 88 kts | 195° |
| 2026-04-24 07:38 | 31.34358 | 35.39172 | -1021 ft | 83 kts | 193° |
| 2026-04-24 07:38 | 31.33846 | 35.39063 | -1108 ft | 65 kts | 191° |
| 2026-04-24 07:38 | 31.33469 | 35.38997 | -1201 ft | 46 kts | 192° |
| 2026-04-24 07:39 | 31.33218 | 35.38940 | -1234 ft | 29 kts | 190° |
| 2026-04-24 07:39 | 31.33055 | 35.38906 | -1237 ft | 20 kts | 190° |
| 2026-04-24 07:39 | 31.32999 | 35.38892 | -1239 ft | 0 kts | 206° |
| 2026-04-24 07:39 | 31.32957 | 35.38850 | -1240 ft | 15 kts | 245° |
| 2026-04-24 07:40 | 31.32967 | 35.38796 | -1239 ft | 0 kts | 294° |